sensor_id;sensor_type;location;lat;lon;timestamp;P1;durP1;ratioP1;P2;durP2;ratioP2
54835;SDS011;43486;43.574;1.476;2023-02-28T00:00:12;3.13;;;1.70;;
54835;SDS011;43486;43.574;1.476;2023-02-28T00:02:39;4.43;;;2.03;;
54835;SDS011;43486;43.574;1.476;2023-02-28T00:05:06;3.28;;;1.48;;
54835;SDS011;43486;43.574;1.476;2023-02-28T00:07:32;3.67;;;1.90;;
54835;SDS011;43486;43.574;1.476;2023-02-28T00:09:57;4.20;;;2.13;;
54835;SDS011;43486;43.574;1.476;2023-02-28T00:12:23;3.00;;;2.00;;
54835;SDS011;43486;43.574;1.476;2023-02-28T00:14:49;5.05;;;1.88;;
54835;SDS011;43486;43.574;1.476;2023-02-28T00:17:15;3.20;;;1.45;;
54835;SDS011;43486;43.574;1.476;2023-02-28T00:19:45;6.22;;;1.50;;
54835;SDS011;43486;43.574;1.476;2023-02-28T00:22:15;3.88;;;1.67;;
54835;SDS011;43486;43.574;1.476;2023-02-28T00:24:41;6.28;;;2.17;;
54835;SDS011;43486;43.574;1.476;2023-02-28T00:27:06;3.55;;;1.70;;
54835;SDS011;43486;43.574;1.476;2023-02-28T00:29:32;4.30;;;1.50;;
54835;SDS011;43486;43.574;1.476;2023-02-28T00:31:57;1.98;;;1.50;;
54835;SDS011;43486;43.574;1.476;2023-02-28T00:34:22;3.38;;;1.88;;
54835;SDS011;43486;43.574;1.476;2023-02-28T00:36:48;5.15;;;2.42;;
54835;SDS011;43486;43.574;1.476;2023-02-28T00:39:14;4.35;;;1.63;;
54835;SDS011;43486;43.574;1.476;2023-02-28T00:41:39;2.38;;;1.52;;
54835;SDS011;43486;43.574;1.476;2023-02-28T00:44:04;3.55;;;1.60;;
54835;SDS011;43486;43.574;1.476;2023-02-28T00:46:30;3.67;;;1.75;;
54835;SDS011;43486;43.574;1.476;2023-02-28T00:48:55;3.70;;;1.90;;
54835;SDS011;43486;43.574;1.476;2023-02-28T00:51:21;3.83;;;2.10;;
54835;SDS011;43486;43.574;1.476;2023-02-28T00:53:46;3.42;;;1.50;;
54835;SDS011;43486;43.574;1.476;2023-02-28T00:56:11;3.38;;;1.75;;
54835;SDS011;43486;43.574;1.476;2023-02-28T00:58:37;4.13;;;1.38;;
54835;SDS011;43486;43.574;1.476;2023-02-28T01:01:02;3.38;;;1.27;;
54835;SDS011;43486;43.574;1.476;2023-02-28T01:03:28;2.63;;;1.55;;
54835;SDS011;43486;43.574;1.476;2023-02-28T01:05:53;3.55;;;1.60;;
54835;SDS011;43486;43.574;1.476;2023-02-28T01:08:18;4.57;;;1.75;;
54835;SDS011;43486;43.574;1.476;2023-02-28T01:10:44;5.10;;;2.03;;
54835;SDS011;43486;43.574;1.476;2023-02-28T01:13:11;9.38;;;2.15;;
54835;SDS011;43486;43.574;1.476;2023-02-28T01:15:38;4.63;;;2.03;;
54835;SDS011;43486;43.574;1.476;2023-02-28T01:18:05;3.72;;;1.70;;
54835;SDS011;43486;43.574;1.476;2023-02-28T01:20:30;2.00;;;1.42;;
54835;SDS011;43486;43.574;1.476;2023-02-28T01:22:55;3.83;;;1.80;;
54835;SDS011;43486;43.574;1.476;2023-02-28T01:25:21;3.63;;;1.50;;
54835;SDS011;43486;43.574;1.476;2023-02-28T01:27:46;2.78;;;1.70;;
54835;SDS011;43486;43.574;1.476;2023-02-28T01:30:11;4.80;;;1.85;;
54835;SDS011;43486;43.574;1.476;2023-02-28T01:32:37;2.00;;;1.30;;
54835;SDS011;43486;43.574;1.476;2023-02-28T01:35:02;5.05;;;1.70;;
54835;SDS011;43486;43.574;1.476;2023-02-28T01:37:28;3.55;;;1.30;;
54835;SDS011;43486;43.574;1.476;2023-02-28T01:39:53;3.40;;;1.67;;
54835;SDS011;43486;43.574;1.476;2023-02-28T01:42:19;3.70;;;1.73;;
54835;SDS011;43486;43.574;1.476;2023-02-28T01:47:38;4.70;;;2.13;;
54835;SDS011;43486;43.574;1.476;2023-02-28T01:50:10;4.90;;;1.88;;
54835;SDS011;43486;43.574;1.476;2023-02-28T01:52:37;3.40;;;1.67;;
54835;SDS011;43486;43.574;1.476;2023-02-28T01:55:04;4.18;;;1.70;;
54835;SDS011;43486;43.574;1.476;2023-02-28T01:57:35;5.40;;;2.13;;
54835;SDS011;43486;43.574;1.476;2023-02-28T02:02:38;5.10;;;2.20;;
54835;SDS011;43486;43.574;1.476;2023-02-28T02:05:05;2.60;;;1.45;;
54835;SDS011;43486;43.574;1.476;2023-02-28T02:07:33;3.13;;;1.70;;
54835;SDS011;43486;43.574;1.476;2023-02-28T02:10:05;4.03;;;1.52;;
54835;SDS011;43486;43.574;1.476;2023-02-28T02:12:43;2.47;;;1.60;;
54835;SDS011;43486;43.574;1.476;2023-02-28T02:18:34;2.33;;;1.20;;
54835;SDS011;43486;43.574;1.476;2023-02-28T02:26:52;3.03;;;1.30;;
54835;SDS011;43486;43.574;1.476;2023-02-28T02:35:01;4.18;;;1.58;;
54835;SDS011;43486;43.574;1.476;2023-02-28T02:37:38;3.90;;;2.15;;
54835;SDS011;43486;43.574;1.476;2023-02-28T02:40:13;2.88;;;1.60;;
54835;SDS011;43486;43.574;1.476;2023-02-28T02:45:26;2.95;;;1.73;;
54835;SDS011;43486;43.574;1.476;2023-02-28T02:47:55;2.42;;;1.42;;
54835;SDS011;43486;43.574;1.476;2023-02-28T02:50:26;2.95;;;1.70;;
54835;SDS011;43486;43.574;1.476;2023-02-28T02:52:56;3.38;;;1.70;;
54835;SDS011;43486;43.574;1.476;2023-02-28T02:55:23;3.63;;;1.58;;
54835;SDS011;43486;43.574;1.476;2023-02-28T02:57:52;3.88;;;1.90;;
54835;SDS011;43486;43.574;1.476;2023-02-28T03:00:23;2.53;;;1.48;;
54835;SDS011;43486;43.574;1.476;2023-02-28T03:02:52;4.03;;;1.73;;
54835;SDS011;43486;43.574;1.476;2023-02-28T03:05:23;2.92;;;1.60;;
54835;SDS011;43486;43.574;1.476;2023-02-28T03:07:50;3.83;;;1.80;;
54835;SDS011;43486;43.574;1.476;2023-02-28T03:10:26;5.68;;;1.80;;
54835;SDS011;43486;43.574;1.476;2023-02-28T03:12:54;3.20;;;1.55;;
54835;SDS011;43486;43.574;1.476;2023-02-28T03:15:45;3.20;;;1.65;;
54835;SDS011;43486;43.574;1.476;2023-02-28T03:18:21;3.40;;;1.85;;
54835;SDS011;43486;43.574;1.476;2023-02-28T03:21:06;2.83;;;1.52;;
54835;SDS011;43486;43.574;1.476;2023-02-28T03:26:03;3.60;;;1.83;;
54835;SDS011;43486;43.574;1.476;2023-02-28T03:28:43;7.88;;;2.40;;
54835;SDS011;43486;43.574;1.476;2023-02-28T03:36:20;2.33;;;1.50;;
54835;SDS011;43486;43.574;1.476;2023-02-28T03:38:52;4.57;;;1.73;;
54835;SDS011;43486;43.574;1.476;2023-02-28T03:41:21;2.92;;;1.70;;
54835;SDS011;43486;43.574;1.476;2023-02-28T03:43:55;6.03;;;2.00;;
54835;SDS011;43486;43.574;1.476;2023-02-28T03:46:24;2.20;;;1.63;;
54835;SDS011;43486;43.574;1.476;2023-02-28T03:48:53;3.20;;;1.65;;
54835;SDS011;43486;43.574;1.476;2023-02-28T03:51:22;4.55;;;2.33;;
54835;SDS011;43486;43.574;1.476;2023-02-28T03:53:50;3.78;;;1.70;;
54835;SDS011;43486;43.574;1.476;2023-02-28T03:56:26;3.80;;;1.92;;
54835;SDS011;43486;43.574;1.476;2023-02-28T03:59:08;3.13;;;1.85;;
54835;SDS011;43486;43.574;1.476;2023-02-28T04:01:42;3.47;;;1.83;;
54835;SDS011;43486;43.574;1.476;2023-02-28T04:04:09;4.20;;;2.05;;
54835;SDS011;43486;43.574;1.476;2023-02-28T04:06:36;4.80;;;2.00;;
54835;SDS011;43486;43.574;1.476;2023-02-28T04:09:02;3.33;;;1.80;;
54835;SDS011;43486;43.574;1.476;2023-02-28T04:11:36;3.05;;;1.75;;
54835;SDS011;43486;43.574;1.476;2023-02-28T04:14:03;4.57;;;2.17;;
54835;SDS011;43486;43.574;1.476;2023-02-28T04:16:29;3.13;;;1.73;;
54835;SDS011;43486;43.574;1.476;2023-02-28T04:18:55;4.13;;;1.88;;
54835;SDS011;43486;43.574;1.476;2023-02-28T04:21:27;2.47;;;1.40;;
54835;SDS011;43486;43.574;1.476;2023-02-28T04:26:30;5.00;;;1.98;;
54835;SDS011;43486;43.574;1.476;2023-02-28T04:28:56;2.63;;;1.67;;
54835;SDS011;43486;43.574;1.476;2023-02-28T04:31:22;3.05;;;1.83;;
54835;SDS011;43486;43.574;1.476;2023-02-28T04:33:47;3.33;;;1.92;;
54835;SDS011;43486;43.574;1.476;2023-02-28T04:36:13;5.05;;;1.90;;
54835;SDS011;43486;43.574;1.476;2023-02-28T04:38:39;3.35;;;1.80;;
54835;SDS011;43486;43.574;1.476;2023-02-28T04:41:05;2.90;;;1.45;;
54835;SDS011;43486;43.574;1.476;2023-02-28T04:43:31;2.78;;;1.55;;
54835;SDS011;43486;43.574;1.476;2023-02-28T04:45:57;3.75;;;2.00;;
54835;SDS011;43486;43.574;1.476;2023-02-28T04:48:23;3.30;;;1.80;;
54835;SDS011;43486;43.574;1.476;2023-02-28T04:50:49;3.28;;;1.65;;
54835;SDS011;43486;43.574;1.476;2023-02-28T04:53:15;3.55;;;1.98;;
54835;SDS011;43486;43.574;1.476;2023-02-28T04:55:40;3.03;;;1.35;;
54835;SDS011;43486;43.574;1.476;2023-02-28T04:58:06;3.92;;;2.22;;
54835;SDS011;43486;43.574;1.476;2023-02-28T05:00:31;6.13;;;1.80;;
54835;SDS011;43486;43.574;1.476;2023-02-28T05:02:57;2.05;;;1.52;;
54835;SDS011;43486;43.574;1.476;2023-02-28T05:05:22;4.40;;;2.13;;
54835;SDS011;43486;43.574;1.476;2023-02-28T05:07:47;3.83;;;2.03;;
54835;SDS011;43486;43.574;1.476;2023-02-28T05:10:13;3.72;;;1.98;;
54835;SDS011;43486;43.574;1.476;2023-02-28T05:12:38;5.75;;;1.98;;
54835;SDS011;43486;43.574;1.476;2023-02-28T05:15:04;5.13;;;2.75;;
54835;SDS011;43486;43.574;1.476;2023-02-28T05:17:30;5.15;;;2.20;;
54835;SDS011;43486;43.574;1.476;2023-02-28T05:19:55;2.53;;;1.65;;
54835;SDS011;43486;43.574;1.476;2023-02-28T05:22:21;5.60;;;1.90;;
54835;SDS011;43486;43.574;1.476;2023-02-28T05:24:46;4.20;;;1.75;;
54835;SDS011;43486;43.574;1.476;2023-02-28T05:27:12;2.90;;;1.60;;
54835;SDS011;43486;43.574;1.476;2023-02-28T05:29:37;5.95;;;1.98;;
54835;SDS011;43486;43.574;1.476;2023-02-28T05:32:08;4.10;;;2.33;;
54835;SDS011;43486;43.574;1.476;2023-02-28T05:34:35;3.47;;;2.20;;
54835;SDS011;43486;43.574;1.476;2023-02-28T05:37:01;3.78;;;1.83;;
54835;SDS011;43486;43.574;1.476;2023-02-28T05:39:27;5.20;;;2.33;;
54835;SDS011;43486;43.574;1.476;2023-02-28T05:41:52;2.45;;;1.65;;
54835;SDS011;43486;43.574;1.476;2023-02-28T05:44:18;4.20;;;2.25;;
54835;SDS011;43486;43.574;1.476;2023-02-28T05:46:43;6.03;;;2.25;;
54835;SDS011;43486;43.574;1.476;2023-02-28T05:49:08;3.50;;;1.75;;
54835;SDS011;43486;43.574;1.476;2023-02-28T05:51:34;3.45;;;2.08;;
54835;SDS011;43486;43.574;1.476;2023-02-28T05:54:01;3.33;;;1.75;;
54835;SDS011;43486;43.574;1.476;2023-02-28T05:56:27;3.95;;;2.03;;
54835;SDS011;43486;43.574;1.476;2023-02-28T05:58:52;4.25;;;2.13;;
54835;SDS011;43486;43.574;1.476;2023-02-28T06:03:48;3.88;;;2.10;;
54835;SDS011;43486;43.574;1.476;2023-02-28T06:06:13;4.22;;;1.92;;
54835;SDS011;43486;43.574;1.476;2023-02-28T06:08:39;3.95;;;2.50;;
54835;SDS011;43486;43.574;1.476;2023-02-28T06:11:04;4.55;;;2.17;;
54835;SDS011;43486;43.574;1.476;2023-02-28T06:13:29;3.17;;;1.58;;
54835;SDS011;43486;43.574;1.476;2023-02-28T06:15:55;4.15;;;2.10;;
54835;SDS011;43486;43.574;1.476;2023-02-28T06:18:20;3.35;;;1.70;;
54835;SDS011;43486;43.574;1.476;2023-02-28T06:20:52;4.50;;;1.67;;
54835;SDS011;43486;43.574;1.476;2023-02-28T06:23:19;2.13;;;1.30;;
54835;SDS011;43486;43.574;1.476;2023-02-28T06:25:45;3.25;;;1.88;;
54835;SDS011;43486;43.574;1.476;2023-02-28T06:28:10;3.25;;;2.13;;
54835;SDS011;43486;43.574;1.476;2023-02-28T06:30:37;4.00;;;2.17;;
54835;SDS011;43486;43.574;1.476;2023-02-28T06:33:02;5.95;;;2.17;;
54835;SDS011;43486;43.574;1.476;2023-02-28T06:35:28;4.80;;;2.15;;
54835;SDS011;43486;43.574;1.476;2023-02-28T06:37:54;3.63;;;1.90;;
54835;SDS011;43486;43.574;1.476;2023-02-28T06:40:19;4.28;;;2.00;;
54835;SDS011;43486;43.574;1.476;2023-02-28T06:42:45;4.00;;;2.60;;
54835;SDS011;43486;43.574;1.476;2023-02-28T06:45:10;3.60;;;2.30;;
54835;SDS011;43486;43.574;1.476;2023-02-28T06:47:40;6.57;;;2.33;;
54835;SDS011;43486;43.574;1.476;2023-02-28T06:50:07;3.78;;;2.17;;
54835;SDS011;43486;43.574;1.476;2023-02-28T06:52:34;4.50;;;2.05;;
54835;SDS011;43486;43.574;1.476;2023-02-28T06:55:02;4.72;;;2.20;;
54835;SDS011;43486;43.574;1.476;2023-02-28T06:57:31;5.38;;;2.58;;
54835;SDS011;43486;43.574;1.476;2023-02-28T07:00:01;2.63;;;1.30;;
54835;SDS011;43486;43.574;1.476;2023-02-28T07:02:30;5.80;;;2.17;;
54835;SDS011;43486;43.574;1.476;2023-02-28T07:04:56;4.72;;;2.47;;
54835;SDS011;43486;43.574;1.476;2023-02-28T07:07:22;4.45;;;2.15;;
54835;SDS011;43486;43.574;1.476;2023-02-28T07:09:47;5.68;;;3.05;;
54835;SDS011;43486;43.574;1.476;2023-02-28T07:12:12;4.28;;;2.55;;
54835;SDS011;43486;43.574;1.476;2023-02-28T07:14:38;4.82;;;2.60;;
54835;SDS011;43486;43.574;1.476;2023-02-28T07:17:03;3.47;;;2.15;;
54835;SDS011;43486;43.574;1.476;2023-02-28T07:19:28;3.70;;;1.83;;
54835;SDS011;43486;43.574;1.476;2023-02-28T07:21:54;5.38;;;2.17;;
54835;SDS011;43486;43.574;1.476;2023-02-28T07:24:19;5.47;;;2.03;;
54835;SDS011;43486;43.574;1.476;2023-02-28T07:26:45;3.45;;;1.77;;
54835;SDS011;43486;43.574;1.476;2023-02-28T07:29:10;7.15;;;2.25;;
54835;SDS011;43486;43.574;1.476;2023-02-28T07:31:36;3.97;;;2.38;;
54835;SDS011;43486;43.574;1.476;2023-02-28T07:34:01;3.35;;;1.98;;
54835;SDS011;43486;43.574;1.476;2023-02-28T07:36:28;5.32;;;2.67;;
54835;SDS011;43486;43.574;1.476;2023-02-28T07:38:53;4.90;;;2.55;;
54835;SDS011;43486;43.574;1.476;2023-02-28T07:41:20;4.85;;;2.10;;
54835;SDS011;43486;43.574;1.476;2023-02-28T07:43:46;3.58;;;2.13;;
54835;SDS011;43486;43.574;1.476;2023-02-28T07:46:12;5.40;;;2.05;;
54835;SDS011;43486;43.574;1.476;2023-02-28T07:48:40;9.70;;;2.47;;
54835;SDS011;43486;43.574;1.476;2023-02-28T07:51:05;5.15;;;2.42;;
54835;SDS011;43486;43.574;1.476;2023-02-28T07:53:31;6.75;;;2.85;;
54835;SDS011;43486;43.574;1.476;2023-02-28T07:55:57;4.55;;;2.13;;
54835;SDS011;43486;43.574;1.476;2023-02-28T07:58:24;3.45;;;2.13;;
54835;SDS011;43486;43.574;1.476;2023-02-28T08:00:50;6.32;;;2.00;;
54835;SDS011;43486;43.574;1.476;2023-02-28T08:03:16;9.40;;;2.35;;
54835;SDS011;43486;43.574;1.476;2023-02-28T08:05:43;7.82;;;2.28;;
54835;SDS011;43486;43.574;1.476;2023-02-28T08:08:08;6.80;;;2.10;;
54835;SDS011;43486;43.574;1.476;2023-02-28T08:10:33;6.80;;;1.83;;
54835;SDS011;43486;43.574;1.476;2023-02-28T08:12:59;3.65;;;1.98;;
54835;SDS011;43486;43.574;1.476;2023-02-28T08:15:25;4.90;;;2.22;;
54835;SDS011;43486;43.574;1.476;2023-02-28T08:17:50;4.85;;;2.00;;
54835;SDS011;43486;43.574;1.476;2023-02-28T08:20:16;3.97;;;2.03;;
54835;SDS011;43486;43.574;1.476;2023-02-28T08:22:41;4.60;;;2.17;;
54835;SDS011;43486;43.574;1.476;2023-02-28T08:25:07;3.83;;;1.83;;
54835;SDS011;43486;43.574;1.476;2023-02-28T08:27:33;5.13;;;2.45;;
54835;SDS011;43486;43.574;1.476;2023-02-28T08:29:58;5.20;;;2.15;;
54835;SDS011;43486;43.574;1.476;2023-02-28T08:32:24;4.53;;;2.35;;
54835;SDS011;43486;43.574;1.476;2023-02-28T08:34:49;5.40;;;2.05;;
54835;SDS011;43486;43.574;1.476;2023-02-28T08:37:15;3.40;;;2.05;;
54835;SDS011;43486;43.574;1.476;2023-02-28T08:39:40;4.82;;;2.10;;
54835;SDS011;43486;43.574;1.476;2023-02-28T08:42:06;4.00;;;2.05;;
54835;SDS011;43486;43.574;1.476;2023-02-28T08:44:31;7.30;;;2.28;;
54835;SDS011;43486;43.574;1.476;2023-02-28T08:46:56;5.68;;;2.58;;
54835;SDS011;43486;43.574;1.476;2023-02-28T08:49:22;3.65;;;1.80;;
54835;SDS011;43486;43.574;1.476;2023-02-28T08:51:47;5.47;;;2.88;;
54835;SDS011;43486;43.574;1.476;2023-02-28T08:54:12;5.85;;;2.55;;
54835;SDS011;43486;43.574;1.476;2023-02-28T08:56:39;4.63;;;2.33;;
54835;SDS011;43486;43.574;1.476;2023-02-28T08:59:05;4.57;;;2.15;;
54835;SDS011;43486;43.574;1.476;2023-02-28T09:01:30;4.32;;;2.10;;
54835;SDS011;43486;43.574;1.476;2023-02-28T09:03:57;9.05;;;2.35;;
54835;SDS011;43486;43.574;1.476;2023-02-28T09:06:23;4.20;;;2.25;;
54835;SDS011;43486;43.574;1.476;2023-02-28T09:08:51;7.03;;;2.72;;
54835;SDS011;43486;43.574;1.476;2023-02-28T09:11:16;5.63;;;3.08;;
54835;SDS011;43486;43.574;1.476;2023-02-28T09:13:43;10.07;;;3.90;;
54835;SDS011;43486;43.574;1.476;2023-02-28T09:16:10;9.15;;;3.00;;
54835;SDS011;43486;43.574;1.476;2023-02-28T09:18:37;5.47;;;2.60;;
54835;SDS011;43486;43.574;1.476;2023-02-28T09:21:07;5.60;;;2.95;;
54835;SDS011;43486;43.574;1.476;2023-02-28T09:23:33;4.35;;;2.15;;
54835;SDS011;43486;43.574;1.476;2023-02-28T09:25:59;6.18;;;3.22;;
54835;SDS011;43486;43.574;1.476;2023-02-28T09:28:24;7.40;;;3.67;;
54835;SDS011;43486;43.574;1.476;2023-02-28T09:30:51;6.68;;;3.17;;
54835;SDS011;43486;43.574;1.476;2023-02-28T09:33:19;4.88;;;2.88;;
54835;SDS011;43486;43.574;1.476;2023-02-28T09:35:47;6.13;;;3.15;;
54835;SDS011;43486;43.574;1.476;2023-02-28T09:38:13;6.72;;;2.50;;
54835;SDS011;43486;43.574;1.476;2023-02-28T09:40:55;7.05;;;3.33;;
54835;SDS011;43486;43.574;1.476;2023-02-28T09:43:25;5.45;;;2.78;;
54835;SDS011;43486;43.574;1.476;2023-02-28T09:46:35;7.63;;;3.33;;
54835;SDS011;43486;43.574;1.476;2023-02-28T09:49:06;6.15;;;3.40;;
54835;SDS011;43486;43.574;1.476;2023-02-28T09:54:09;5.35;;;2.78;;
54835;SDS011;43486;43.574;1.476;2023-02-28T09:56:44;7.28;;;3.30;;
54835;SDS011;43486;43.574;1.476;2023-02-28T09:59:14;6.00;;;3.65;;
54835;SDS011;43486;43.574;1.476;2023-02-28T10:07:17;8.25;;;4.18;;
54835;SDS011;43486;43.574;1.476;2023-02-28T10:09:45;9.20;;;3.42;;
54835;SDS011;43486;43.574;1.476;2023-02-28T10:12:12;8.23;;;3.35;;
54835;SDS011;43486;43.574;1.476;2023-02-28T10:14:38;10.80;;;4.90;;
54835;SDS011;43486;43.574;1.476;2023-02-28T10:17:09;6.22;;;3.58;;
54835;SDS011;43486;43.574;1.476;2023-02-28T10:24:48;11.65;;;3.67;;
54835;SDS011;43486;43.574;1.476;2023-02-28T10:29:53;6.03;;;2.67;;
54835;SDS011;43486;43.574;1.476;2023-02-28T10:32:22;6.03;;;2.78;;
54835;SDS011;43486;43.574;1.476;2023-02-28T10:34:53;6.72;;;3.00;;
54835;SDS011;43486;43.574;1.476;2023-02-28T10:37:22;9.10;;;3.40;;
54835;SDS011;43486;43.574;1.476;2023-02-28T10:39:47;5.95;;;3.25;;
54835;SDS011;43486;43.574;1.476;2023-02-28T10:42:46;6.32;;;2.63;;
54835;SDS011;43486;43.574;1.476;2023-02-28T10:47:56;5.30;;;3.25;;
54835;SDS011;43486;43.574;1.476;2023-02-28T10:51:05;6.78;;;2.95;;
54835;SDS011;43486;43.574;1.476;2023-02-28T10:55:42;4.77;;;2.80;;
54835;SDS011;43486;43.574;1.476;2023-02-28T10:58:20;5.78;;;3.10;;
54835;SDS011;43486;43.574;1.476;2023-02-28T11:00:48;5.45;;;2.47;;
54835;SDS011;43486;43.574;1.476;2023-02-28T11:03:32;5.30;;;2.42;;
54835;SDS011;43486;43.574;1.476;2023-02-28T11:06:04;5.53;;;2.78;;
54835;SDS011;43486;43.574;1.476;2023-02-28T11:08:31;6.53;;;2.55;;
54835;SDS011;43486;43.574;1.476;2023-02-28T11:10:57;6.03;;;2.67;;
54835;SDS011;43486;43.574;1.476;2023-02-28T11:13:31;5.18;;;2.50;;
54835;SDS011;43486;43.574;1.476;2023-02-28T11:15:59;4.05;;;2.25;;
54835;SDS011;43486;43.574;1.476;2023-02-28T11:18:41;5.70;;;2.72;;
54835;SDS011;43486;43.574;1.476;2023-02-28T11:21:33;8.93;;;2.97;;
54835;SDS011;43486;43.574;1.476;2023-02-28T11:29:09;5.60;;;2.78;;
54835;SDS011;43486;43.574;1.476;2023-02-28T11:31:36;6.10;;;3.25;;
54835;SDS011;43486;43.574;1.476;2023-02-28T11:34:07;4.85;;;2.33;;
54835;SDS011;43486;43.574;1.476;2023-02-28T11:36:48;6.57;;;2.95;;
54835;SDS011;43486;43.574;1.476;2023-02-28T11:39:13;4.45;;;1.85;;
54835;SDS011;43486;43.574;1.476;2023-02-28T11:44:45;4.40;;;2.95;;
54835;SDS011;43486;43.574;1.476;2023-02-28T12:00:25;5.53;;;2.75;;
54835;SDS011;43486;43.574;1.476;2023-02-28T12:06:25;5.65;;;2.50;;
54835;SDS011;43486;43.574;1.476;2023-02-28T12:19:16;7.25;;;1.75;;
54835;SDS011;43486;43.574;1.476;2023-02-28T12:27:12;5.40;;;2.47;;
54835;SDS011;43486;43.574;1.476;2023-02-28T12:29:45;4.88;;;2.80;;
54835;SDS011;43486;43.574;1.476;2023-02-28T12:34:55;6.20;;;2.47;;
54835;SDS011;43486;43.574;1.476;2023-02-28T12:40:20;4.63;;;2.30;;
54835;SDS011;43486;43.574;1.476;2023-02-28T12:42:51;5.75;;;1.98;;
54835;SDS011;43486;43.574;1.476;2023-02-28T12:45:20;7.45;;;2.17;;
54835;SDS011;43486;43.574;1.476;2023-02-28T12:47:50;5.28;;;2.78;;
54835;SDS011;43486;43.574;1.476;2023-02-28T12:50:18;6.07;;;4.15;;
54835;SDS011;43486;43.574;1.476;2023-02-28T12:52:47;3.83;;;2.08;;
54835;SDS011;43486;43.574;1.476;2023-02-28T12:58:08;4.57;;;2.25;;
54835;SDS011;43486;43.574;1.476;2023-02-28T13:00:44;4.63;;;1.85;;
54835;SDS011;43486;43.574;1.476;2023-02-28T13:03:41;4.40;;;2.28;;
54835;SDS011;43486;43.574;1.476;2023-02-28T13:06:20;3.65;;;1.77;;
54835;SDS011;43486;43.574;1.476;2023-02-28T13:08:53;4.55;;;2.38;;
54835;SDS011;43486;43.574;1.476;2023-02-28T13:11:43;4.18;;;2.15;;
54835;SDS011;43486;43.574;1.476;2023-02-28T13:14:29;4.38;;;2.13;;
54835;SDS011;43486;43.574;1.476;2023-02-28T13:19:24;3.47;;;2.08;;
54835;SDS011;43486;43.574;1.476;2023-02-28T13:21:51;3.78;;;1.83;;
54835;SDS011;43486;43.574;1.476;2023-02-28T13:29:48;19.75;;;2.38;;
54835;SDS011;43486;43.574;1.476;2023-02-28T13:39:47;2.22;;;1.38;;
54835;SDS011;43486;43.574;1.476;2023-02-28T13:45:31;3.30;;;1.90;;
54835;SDS011;43486;43.574;1.476;2023-02-28T13:47:45;7.45;;;2.03;;
54835;SDS011;43486;43.574;1.476;2023-02-28T13:52:54;4.53;;;2.03;;
54835;SDS011;43486;43.574;1.476;2023-02-28T13:55:37;5.43;;;2.08;;
54835;SDS011;43486;43.574;1.476;2023-02-28T14:06:24;3.45;;;2.33;;
54835;SDS011;43486;43.574;1.476;2023-02-28T14:09:02;3.15;;;1.73;;
54835;SDS011;43486;43.574;1.476;2023-02-28T14:11:34;4.22;;;1.65;;
54835;SDS011;43486;43.574;1.476;2023-02-28T14:14:01;3.65;;;1.55;;
54835;SDS011;43486;43.574;1.476;2023-02-28T14:16:35;4.60;;;1.80;;
54835;SDS011;43486;43.574;1.476;2023-02-28T14:19:12;3.53;;;1.98;;
54835;SDS011;43486;43.574;1.476;2023-02-28T14:21:39;4.15;;;2.03;;
54835;SDS011;43486;43.574;1.476;2023-02-28T14:37:33;3.10;;;1.80;;
54835;SDS011;43486;43.574;1.476;2023-02-28T14:40:01;3.55;;;2.20;;
54835;SDS011;43486;43.574;1.476;2023-02-28T14:44:56;3.47;;;1.80;;
54835;SDS011;43486;43.574;1.476;2023-02-28T14:47:22;4.10;;;2.00;;
54835;SDS011;43486;43.574;1.476;2023-02-28T14:49:48;2.38;;;1.60;;
54835;SDS011;43486;43.574;1.476;2023-02-28T14:52:19;3.58;;;1.63;;
54835;SDS011;43486;43.574;1.476;2023-02-28T14:54:46;4.05;;;1.50;;
54835;SDS011;43486;43.574;1.476;2023-02-28T14:58:00;2.97;;;1.60;;
54835;SDS011;43486;43.574;1.476;2023-02-28T15:02:43;5.18;;;1.95;;
54835;SDS011;43486;43.574;1.476;2023-02-28T15:07:37;5.70;;;2.55;;
54835;SDS011;43486;43.574;1.476;2023-02-28T15:10:16;4.65;;;2.03;;
54835;SDS011;43486;43.574;1.476;2023-02-28T15:12:55;3.20;;;1.83;;
54835;SDS011;43486;43.574;1.476;2023-02-28T15:15:26;2.10;;;1.50;;
54835;SDS011;43486;43.574;1.476;2023-02-28T15:17:58;5.03;;;2.20;;
54835;SDS011;43486;43.574;1.476;2023-02-28T15:20:24;4.95;;;1.77;;
54835;SDS011;43486;43.574;1.476;2023-02-28T15:22:50;2.50;;;2.10;;
54835;SDS011;43486;43.574;1.476;2023-02-28T15:25:19;2.00;;;1.35;;
54835;SDS011;43486;43.574;1.476;2023-02-28T15:27:47;5.25;;;2.55;;
54835;SDS011;43486;43.574;1.476;2023-02-28T15:30:25;4.05;;;1.70;;
54835;SDS011;43486;43.574;1.476;2023-02-28T15:33:03;3.60;;;1.88;;
54835;SDS011;43486;43.574;1.476;2023-02-28T15:35:29;3.13;;;1.60;;
54835;SDS011;43486;43.574;1.476;2023-02-28T15:38:01;5.13;;;1.63;;
54835;SDS011;43486;43.574;1.476;2023-02-28T15:40:31;4.22;;;2.03;;
54835;SDS011;43486;43.574;1.476;2023-02-28T15:42:58;2.72;;;1.83;;
54835;SDS011;43486;43.574;1.476;2023-02-28T15:48:18;4.20;;;2.40;;
54835;SDS011;43486;43.574;1.476;2023-02-28T15:50:54;4.85;;;2.40;;
54835;SDS011;43486;43.574;1.476;2023-02-28T15:56:25;5.30;;;1.73;;
54835;SDS011;43486;43.574;1.476;2023-02-28T15:58:55;3.88;;;2.22;;
54835;SDS011;43486;43.574;1.476;2023-02-28T16:01:26;2.78;;;1.50;;
54835;SDS011;43486;43.574;1.476;2023-02-28T16:03:57;4.00;;;1.65;;
54835;SDS011;43486;43.574;1.476;2023-02-28T16:09:03;4.15;;;1.83;;
54835;SDS011;43486;43.574;1.476;2023-02-28T16:11:33;4.00;;;1.92;;
54835;SDS011;43486;43.574;1.476;2023-02-28T16:14:00;3.97;;;1.95;;
54835;SDS011;43486;43.574;1.476;2023-02-28T16:16:25;4.05;;;2.03;;
54835;SDS011;43486;43.574;1.476;2023-02-28T16:18:51;3.45;;;1.52;;
54835;SDS011;43486;43.574;1.476;2023-02-28T16:21:17;2.80;;;1.40;;
54835;SDS011;43486;43.574;1.476;2023-02-28T16:23:42;2.70;;;1.52;;
54835;SDS011;43486;43.574;1.476;2023-02-28T16:26:08;6.30;;;2.17;;
54835;SDS011;43486;43.574;1.476;2023-02-28T16:28:45;4.20;;;2.00;;
54835;SDS011;43486;43.574;1.476;2023-02-28T16:31:10;4.38;;;1.75;;
54835;SDS011;43486;43.574;1.476;2023-02-28T16:33:41;2.95;;;1.45;;
54835;SDS011;43486;43.574;1.476;2023-02-28T16:36:19;4.60;;;1.60;;
54835;SDS011;43486;43.574;1.476;2023-02-28T16:38:46;4.63;;;1.88;;
54835;SDS011;43486;43.574;1.476;2023-02-28T16:41:12;4.68;;;1.88;;
54835;SDS011;43486;43.574;1.476;2023-02-28T16:43:44;4.47;;;1.95;;
54835;SDS011;43486;43.574;1.476;2023-02-28T16:46:11;2.63;;;1.65;;
54835;SDS011;43486;43.574;1.476;2023-02-28T16:48:37;3.38;;;1.80;;
54835;SDS011;43486;43.574;1.476;2023-02-28T16:51:03;2.95;;;1.63;;
54835;SDS011;43486;43.574;1.476;2023-02-28T16:53:29;4.85;;;1.73;;
54835;SDS011;43486;43.574;1.476;2023-02-28T16:55:55;3.83;;;1.70;;
54835;SDS011;43486;43.574;1.476;2023-02-28T16:58:20;3.75;;;1.92;;
54835;SDS011;43486;43.574;1.476;2023-02-28T17:00:48;6.22;;;1.77;;
54835;SDS011;43486;43.574;1.476;2023-02-28T17:03:20;3.00;;;1.45;;
54835;SDS011;43486;43.574;1.476;2023-02-28T17:05:50;4.38;;;2.33;;
54835;SDS011;43486;43.574;1.476;2023-02-28T17:08:16;3.45;;;1.55;;
54835;SDS011;43486;43.574;1.476;2023-02-28T17:10:42;4.10;;;1.85;;
54835;SDS011;43486;43.574;1.476;2023-02-28T17:13:07;4.40;;;2.08;;
54835;SDS011;43486;43.574;1.476;2023-02-28T17:15:33;3.42;;;1.92;;
54835;SDS011;43486;43.574;1.476;2023-02-28T17:17:58;3.70;;;1.63;;
54835;SDS011;43486;43.574;1.476;2023-02-28T17:20:24;5.70;;;2.42;;
54835;SDS011;43486;43.574;1.476;2023-02-28T17:22:51;2.95;;;1.77;;
54835;SDS011;43486;43.574;1.476;2023-02-28T17:25:17;3.55;;;2.03;;
54835;SDS011;43486;43.574;1.476;2023-02-28T17:27:43;3.55;;;1.38;;
54835;SDS011;43486;43.574;1.476;2023-02-28T17:30:19;3.47;;;2.15;;
54835;SDS011;43486;43.574;1.476;2023-02-28T17:32:47;4.45;;;2.13;;
54835;SDS011;43486;43.574;1.476;2023-02-28T17:35:12;5.07;;;2.17;;
54835;SDS011;43486;43.574;1.476;2023-02-28T17:37:38;3.22;;;2.03;;
54835;SDS011;43486;43.574;1.476;2023-02-28T17:40:04;7.13;;;2.28;;